Time;durP1;ratioP1;P1;durP2;ratioP2;P2;SDS_P1;SDS_P2;PMS_P1;PMS_P2;Temp;Humidity;BMP_temperature;BMP_pressure;BME280_temperature;BME280_humidity;BME280_pressure;Samples;Min_cycle;Max_cycle;Signal;HPM_P1;HPM_P2
2022/09/15 00:01:42;;;;;;;10.27;4.30;;;;;;;16.90;100.00;97758.06;5049150;28;20035;-70
2022/09/15 00:04:08;;;;;;;8.93;4.18;;;;;;;16.72;100.00;97735.59;5054104;28;20036;-71
2022/09/15 00:06:34;;;;;;;6.25;3.20;;;;;;;16.80;100.00;97759.69;5066957;28;20033;-71
2022/09/15 00:09:01;;;;;;;8.98;4.13;;;;;;;16.70;100.00;97754.16;5062324;28;20511;-70
2022/09/15 00:11:29;;;;;;;8.02;3.80;;;;;;;16.75;100.00;97761.56;5056750;28;20025;-71
2022/09/15 00:13:58;;;;;;;9.65;4.25;;;;;;;16.70;100.00;97758.81;5043583;28;20033;-71
2022/09/15 00:16:26;;;;;;;11.15;4.18;;;;;;;16.73;100.00;97761.00;5056094;28;20497;-71
2022/09/15 00:18:51;;;;;;;10.50;4.88;;;;;;;16.60;100.00;97735.00;5041999;28;20036;-71
2022/09/15 00:21:20;;;;;;;8.93;4.63;;;;;;;16.68;100.00;97739.94;5056228;28;20033;-72
2022/09/15 00:23:46;;;;;;;6.22;4.15;;;;;;;16.76;100.00;97755.00;5059716;28;20059;-71
2022/09/15 00:26:15;;;;;;;10.35;4.60;;;;;;;16.76;100.00;97755.00;5064313;28;20048;-71
2022/09/15 00:28:41;;;;;;;13.38;4.30;;;;;;;16.57;100.00;97721.91;5066709;28;20026;-71
2022/09/15 00:31:10;;;;;;;6.13;4.53;;;;;;;16.78;100.00;97750.94;5061383;28;20040;-71
2022/09/15 00:33:36;;;;;;;15.32;4.68;;;;;;;16.75;100.00;97758.81;5050533;28;20650;-71
2022/09/15 00:36:05;;;;;;;11.40;5.25;;;;;;;16.76;100.00;97735.88;5068621;28;20114;-71
2022/09/15 00:38:31;;;;;;;8.13;4.93;;;;;;;16.84;100.00;97749.03;5066770;28;20024;-71
2022/09/15 00:40:57;;;;;;;9.48;5.10;;;;;;;16.83;100.00;97755.59;5062100;28;20285;-71
2022/09/15 00:43:48;;;;;;;10.40;5.07;;;;;;;16.85;100.00;97767.06;5055775;28;20496;-71
2022/09/15 00:46:15;;;;;;;6.35;4.65;;;;;;;16.88;100.00;97768.44;5075721;28;20036;-71
2022/09/15 00:48:48;;;;;;;7.15;4.43;;;;;;;16.81;100.00;97736.72;5055184;28;20032;-71
2022/09/15 00:51:17;;;;;;;5.13;3.63;;;;;;;16.81;100.00;97739.47;5061922;28;20660;-71
2022/09/15 00:53:45;;;;;;;12.40;4.03;;;;;;;16.91;100.00;97749.59;5041721;28;20462;-71
2022/09/15 00:56:12;;;;;;;4.68;3.20;;;;;;;16.81;100.00;97739.47;5046296;28;20083;-71
2022/09/15 00:58:46;;;;;;;7.38;2.92;;;;;;;16.81;100.00;97739.47;5056779;28;20110;-71
2022/09/15 01:01:13;;;;;;;5.03;2.05;;;;;;;16.81;100.00;97731.25;5062322;28;20112;-71
2022/09/15 01:03:39;;;;;;;6.75;2.78;;;;;;;16.89;100.00;97740.03;5055920;28;20074;-71
2022/09/15 01:06:10;;;;;;;4.88;2.65;;;;;;;16.86;100.00;97742.19;5059274;28;20036;-71
2022/09/15 01:08:52;;;;;;;7.80;2.80;;;;;;;16.91;100.00;97754.25;5062891;28;20020;-71
2022/09/15 01:11:18;;;;;;;8.00;3.72;;;;;;;16.76;100.00;97736.69;5062165;28;20114;-71
2022/09/15 01:13:44;;;;;;;6.82;2.80;;;;;;;16.85;100.00;97737.84;5066108;28;20105;-71
2022/09/15 01:16:25;;;;;;;7.82;3.05;;;;;;;16.96;100.00;97746.06;5069447;28;20494;-71
2022/09/15 01:19:11;;;;;;;6.78;2.42;;;;;;;16.84;100.00;97733.44;5059741;28;20032;-71
2022/09/15 01:22:04;;;;;;;7.68;2.25;;;;;;;16.90;100.00;97734.31;5059345;28;20033;-71
2022/09/15 01:24:58;;;;;;;5.05;2.28;;;;;;;16.83;100.00;97731.81;5066544;28;20104;-71
2022/09/15 01:27:42;;;;;;;9.05;2.05;;;;;;;16.87;100.00;97726.63;5063690;28;20016;-71
2022/09/15 01:30:13;;;;;;;3.38;2.30;;;;;;;16.88;100.00;97722.81;5052104;28;20035;-71
2022/09/15 01:33:11;;;;;;;3.63;1.98;;;;;;;16.90;100.00;97706.97;5062797;28;20035;-71
2022/09/15 01:35:39;;;;;;;2.42;1.75;;;;;;;16.89;100.00;97720.91;5067769;28;20029;-71
2022/09/15 01:38:16;;;;;;;3.72;1.67;;;;;;;16.88;100.00;97722.00;5051392;28;20025;-71
2022/09/15 01:40:49;;;;;;;4.50;1.85;;;;;;;16.82;100.00;97713.81;5048308;28;20044;-71
2022/09/15 01:43:19;;;;;;;3.65;1.80;;;;;;;16.80;100.00;97713.25;5054981;28;20036;-71
2022/09/15 01:45:46;;;;;;;;;;;;;;;16.76;100.00;97720.28;5050075;28;20047;-71
2022/09/15 01:48:12;;;;;;;2.47;1.42;;;;;;;16.72;100.00;97708.28;5053571;28;20521;-71
2022/09/15 01:50:45;;;;;;;7.20;2.08;;;;;;;16.74;100.00;97711.56;5062857;28;20052;-71
2022/09/15 01:53:16;;;;;;;6.28;2.13;;;;;;;16.62;100.00;97697.34;5051865;28;20144;-72
2022/09/15 01:55:58;;;;;;;2.80;1.88;;;;;;;16.65;100.00;97713.19;5054723;28;20052;-72
2022/09/15 01:58:24;;;;;;;4.57;2.53;;;;;;;16.65;100.00;97715.91;5043084;28;20780;-72
2022/09/15 02:01:06;;;;;;;3.55;1.95;;;;;;;16.54;100.00;97697.88;5034794;28;20115;-71
2022/09/15 02:03:43;;;;;;;3.60;1.85;;;;;;;16.71;100.00;97705.81;5053988;28;20086;-72
2022/09/15 02:06:16;;;;;;;5.63;1.90;;;;;;;16.70;100.00;97694.06;5063477;28;20103;-71
2022/09/15 02:08:48;;;;;;;3.03;2.17;;;;;;;16.76;100.00;97708.56;5061493;28;20021;-73
2022/09/15 02:11:25;;;;;;;3.65;1.80;;;;;;;16.72;100.00;97707.47;5056328;28;20168;-72
2022/09/15 02:14:12;;;;;;;6.35;2.53;;;;;;;16.76;100.00;97706.63;5059387;28;20024;-71
2022/09/15 02:16:42;;;;;;;3.60;2.25;;;;;;;16.59;100.00;97684.22;5064924;28;20102;-72
2022/09/15 02:19:13;;;;;;;4.38;2.05;;;;;;;16.61;100.00;97703.88;5061435;28;20052;-71
2022/09/15 02:22:16;;;;;;;3.67;2.20;;;;;;;16.58;100.00;97701.69;5065533;28;20113;-72
2022/09/15 02:24:51;;;;;;;2.58;1.88;;;;;;;16.52;100.00;97695.38;5072338;28;20036;-72
2022/09/15 02:27:23;;;;;;;4.38;2.03;;;;;;;16.56;100.00;97692.97;5067776;28;20099;-71
2022/09/15 02:29:52;;;;;;;2.97;1.92;;;;;;;16.59;100.00;97684.22;5058581;28;20024;-71
2022/09/15 02:32:22;;;;;;;7.00;1.90;;;;;;;16.64;100.00;97692.44;5059221;28;20151;-71
2022/09/15 02:34:50;;;;;;;3.08;1.75;;;;;;;16.52;100.00;97686.38;5043273;28;20359;-71
2022/09/15 02:37:18;;;;;;;5.88;2.15;;;;;;;16.56;100.00;97703.88;5044663;28;20032;-71
2022/09/15 02:39:50;;;;;;;2.80;1.98;;;;;;;16.55;100.00;97703.03;5059491;28;20067;-71
2022/09/15 02:42:23;;;;;;;4.28;2.35;;;;;;;16.53;100.00;97693.47;5059667;28;20410;-72
2022/09/15 02:44:49;;;;;;;5.03;2.42;;;;;;;16.50;100.00;97685.81;5061111;28;20024;-72
2022/09/15 02:47:15;;;;;;;3.88;2.08;;;;;;;16.63;100.00;97702.50;5066515;28;20036;-71
2022/09/15 02:49:40;;;;;;;2.85;1.92;;;;;;;16.48;100.00;97674.34;5041780;28;20028;-72
2022/09/15 02:52:06;;;;;;;5.50;1.73;;;;;;;16.75;100.00;97690.53;5061203;28;20064;-72
2022/09/15 02:54:31;;;;;;;3.15;1.73;;;;;;;16.67;100.00;97667.31;5066880;28;20017;-71
2022/09/15 02:56:56;;;;;;;2.83;1.92;;;;;;;16.71;100.00;97684.78;5071807;28;20466;-71
2022/09/15 02:59:22;;;;;;;4.55;1.92;;;;;;;16.77;100.00;97685.63;5065358;28;20427;-71
2022/09/15 03:01:47;;;;;;;3.17;1.92;;;;;;;16.78;100.00;97685.38;5061043;28;20043;-72
2022/09/15 03:04:12;;;;;;;6.63;2.00;;;;;;;16.51;100.00;97647.34;5068497;28;20441;-71
2022/09/15 03:06:37;;;;;;;3.75;1.60;;;;;;;16.77;100.00;97669.25;5067486;28;20036;-71
2022/09/15 03:09:07;;;;;;;4.45;1.92;;;;;;;16.82;100.00;97678.28;5051280;28;20438;-72
2022/09/15 03:11:32;;;;;;;;;;;;;;;16.83;100.00;97676.38;5051017;28;20020;-72
2022/09/15 03:14:03;;;;;;;3.30;1.73;;;;;;;16.77;100.00;97663.78;5064415;28;19920;-72
2022/09/15 03:16:31;;;;;;;9.25;2.17;;;;;;;16.70;100.00;97647.66;5066822;28;20032;-72
2022/09/15 03:18:58;;;;;;;6.45;1.98;;;;;;;16.82;100.00;97667.38;5039437;28;20070;-73
2022/09/15 03:21:24;;;;;;;3.97;2.03;;;;;;;16.81;100.00;97668.44;5055596;28;20033;-72
2022/09/15 03:23:49;;;;;;;2.67;2.08;;;;;;;16.69;100.00;97664.28;5062406;28;20502;-72
2022/09/15 03:26:14;;;;;;;3.85;1.77;;;;;;;16.77;100.00;97675.56;5060671;28;20040;-72
2022/09/15 03:28:40;;;;;;;3.13;2.03;;;;;;;16.77;100.00;97671.97;5061249;28;20016;-73
2022/09/15 03:31:07;;;;;;;3.75;1.95;;;;;;;16.69;100.00;97678.78;5064547;28;20508;-72
2022/09/15 03:33:33;;;;;;;7.80;2.03;;;;;;;16.77;100.00;97681.00;5062921;28;20086;-72
2022/09/15 03:35:59;;;;;;;4.07;2.00;;;;;;;16.74;100.00;97684.25;5070732;28;20016;-73
2022/09/15 03:38:24;;;;;;;4.75;2.15;;;;;;;16.74;100.00;97678.78;5061823;28;20032;-73
2022/09/15 03:40:58;;;;;;;4.40;2.00;;;;;;;16.73;100.00;97687.25;5048077;28;20047;-72
2022/09/15 03:43:24;;;;;;;5.57;1.88;;;;;;;16.74;100.00;97688.88;5069531;28;20662;-72
2022/09/15 03:45:49;;;;;;;7.30;1.85;;;;;;;16.77;100.00;97691.09;5069356;28;20031;-72
2022/09/15 03:48:15;;;;;;;3.78;1.80;;;;;;;16.77;100.00;97677.44;5069950;28;20492;-72
2022/09/15 03:50:40;;;;;;;7.05;2.00;;;;;;;16.77;100.00;97674.69;5066622;28;20059;-72
2022/09/15 03:53:05;;;;;;;3.75;1.55;;;;;;;16.88;100.00;97679.09;5070788;28;20131;-72
2022/09/15 03:55:30;;;;;;;6.80;1.85;;;;;;;16.82;100.00;97675.56;5046145;28;20458;-72
2022/09/15 03:57:56;;;;;;;3.60;2.00;;;;;;;16.91;100.00;97678.56;5069971;28;20040;-72
2022/09/15 04:00:22;;;;;;;3.75;2.13;;;;;;;16.86;100.00;97676.63;5065583;28;20477;-72
2022/09/15 04:02:47;;;;;;;4.43;1.70;;;;;;;16.89;100.00;97669.81;5066860;28;20478;-72
2022/09/15 04:05:13;;;;;;;7.55;1.70;;;;;;;16.88;100.00;97681.03;5063675;28;20031;-72
2022/09/15 04:07:39;;;;;;;5.47;1.90;;;;;;;16.84;100.00;97676.09;5067158;28;20485;-72
2022/09/15 04:10:07;;;;;;;4.18;1.92;;;;;;;16.73;100.00;97655.28;5040420;28;20029;-72
2022/09/15 04:12:33;;;;;;;2.58;1.58;;;;;;;16.86;100.00;97682.09;5039148;28;20636;-72
2022/09/15 04:14:59;;;;;;;5.70;1.77;;;;;;;16.82;100.00;97685.63;5060111;28;20025;-72
2022/09/15 04:17:24;;;;;;;7.28;1.95;;;;;;;16.77;100.00;97663.78;5062423;28;20025;-72
2022/09/15 04:19:50;;;;;;;2.85;1.73;;;;;;;16.84;100.00;97672.53;5040970;28;20047;-72
2022/09/15 04:22:15;;;;;;;2.50;1.77;;;;;;;16.79;100.00;97670.66;5046033;28;20057;-72
2022/09/15 04:24:41;;;;;;;4.65;1.70;;;;;;;16.86;100.00;97682.09;5055585;28;20043;-72
2022/09/15 04:27:06;;;;;;;4.55;1.77;;;;;;;16.71;100.00;97665.66;5058075;28;20470;-72
2022/09/15 04:29:31;;;;;;;4.80;1.80;;;;;;;16.80;100.00;97680.47;5056966;28;20083;-72
2022/09/15 04:31:57;;;;;;;5.55;1.73;;;;;;;16.82;100.00;97680.19;5062119;28;20056;-72
2022/09/15 04:34:23;;;;;;;6.80;2.05;;;;;;;16.88;100.00;97684.56;5056088;28;20039;-68
2022/09/15 04:36:48;;;;;;;8.68;1.80;;;;;;;16.79;100.00;97658.88;5054154;28;20055;-75
2022/09/15 04:39:14;;;;;;;3.78;1.63;;;;;;;16.80;100.00;97661.34;5060432;28;20025;-76
2022/09/15 04:41:39;;;;;;;6.65;1.70;;;;;;;16.89;100.00;97658.06;5048426;28;20039;-74
2022/09/15 04:44:04;;;;;;;2.83;1.70;;;;;;;16.84;100.00;97637.84;5043927;28;20032;-76
2022/09/15 04:46:30;;;;;;;5.35;1.70;;;;;;;16.93;100.00;97656.44;5033561;28;20094;-75
2022/09/15 04:48:56;;;;;;;5.05;1.48;;;;;;;17.01;100.00;97673.09;5037328;28;20104;-76
2022/09/15 04:51:22;;;;;;;3.50;1.63;;;;;;;17.01;100.00;97667.63;5040582;28;20090;-75
2022/09/15 04:53:48;;;;;;;2.97;1.60;;;;;;;16.88;100.00;97645.50;5058144;28;20077;-76
2022/09/15 04:56:16;;;;;;;3.28;1.70;;;;;;;17.03;100.00;97665.47;5059884;28;20021;-76
2022/09/15 04:58:47;;;;;;;3.88;1.75;;;;;;;17.03;100.00;97667.38;5056700;28;20052;-77
2022/09/15 05:01:21;;;;;;;3.33;1.70;;;;;;;16.96;100.00;97659.44;5052045;28;20028;-76
2022/09/15 05:03:47;;;;;;;2.55;1.88;;;;;;;17.04;100.00;97675.28;5037611;28;20589;-75
2022/09/15 05:06:16;;;;;;;5.93;2.15;;;;;;;16.95;100.00;97665.16;5060233;28;20033;-75
2022/09/15 05:08:42;;;;;;;3.63;1.90;;;;;;;17.00;100.00;97682.41;5046510;28;20029;-75
2022/09/15 05:11:11;;;;;;;4.00;1.70;;;;;;;17.02;100.00;97673.91;5060222;28;20032;-75
2022/09/15 05:13:38;;;;;;;6.97;2.15;;;;;;;16.99;100.00;97688.13;5043547;28;20032;-76
2022/09/15 05:16:11;;;;;;;4.78;2.42;;;;;;;17.01;100.00;97686.78;5060470;28;20136;-74
2022/09/15 05:18:38;;;;;;;6.47;2.30;;;;;;;16.94;100.00;97683.47;5063024;28;20043;-70
2022/09/15 05:21:04;;;;;;;8.60;2.45;;;;;;;16.95;100.00;97698.78;5060828;28;20475;-72
2022/09/15 05:23:30;;;;;;;6.72;2.70;;;;;;;16.91;100.00;97680.47;5056819;28;20035;-77
2022/09/15 05:26:01;;;;;;;7.00;2.58;;;;;;;16.98;100.00;97702.91;5066496;28;20028;-68
2022/09/15 05:28:26;;;;;;;2.47;1.80;;;;;;;16.92;100.00;97701.22;5059794;28;20021;-67
2022/09/15 05:30:53;;;;;;;5.85;2.05;;;;;;;16.90;100.00;97706.97;5052910;28;20035;-67
2022/09/15 05:33:19;;;;;;;5.55;2.53;;;;;;;16.89;100.00;97701.78;5052869;28;20029;-67
2022/09/15 05:35:56;;;;;;;8.25;2.50;;;;;;;16.79;100.00;97686.19;5058128;28;20382;-67
2022/09/15 05:38:23;;;;;;;6.20;2.28;;;;;;;16.88;100.00;97700.16;5048443;28;20739;-67
2022/09/15 05:40:48;;;;;;;2.60;2.00;;;;;;;16.90;100.00;97708.88;5055968;28;20036;-67
2022/09/15 05:43:15;;;;;;;3.65;1.75;;;;;;;16.91;100.00;97711.34;5055060;28;20537;-67
2022/09/15 05:45:41;;;;;;;5.00;2.47;;;;;;;16.72;100.00;97685.63;5051855;28;20024;-67
2022/09/15 05:48:11;;;;;;;7.00;2.22;;;;;;;16.85;100.00;97717.91;5035861;28;20045;-67
2022/09/15 05:50:37;;;;;;;6.32;2.40;;;;;;;16.79;100.00;97716.22;5054526;28;20037;-71
2022/09/15 05:53:03;;;;;;;3.97;2.42;;;;;;;16.68;100.00;97692.69;5049802;28;20025;-70
2022/09/15 05:55:29;;;;;;;5.63;2.75;;;;;;;16.82;100.00;97722.00;5051770;28;20044;-74
2022/09/15 05:57:54;;;;;;;4.45;3.10;;;;;;;16.70;100.00;97705.00;5058682;28;20037;-74
2022/09/15 06:00:20;;;;;;;4.72;2.80;;;;;;;16.63;100.00;97696.22;5062307;28;20060;-74
2022/09/15 06:02:45;;;;;;;6.78;2.47;;;;;;;16.75;100.00;97706.94;5068269;28;20082;-74
2022/09/15 06:05:10;;;;;;;6.68;2.45;;;;;;;16.68;100.00;97696.25;5061458;28;20035;-71
2022/09/15 06:07:36;;;;;;;4.60;2.70;;;;;;;16.89;100.00;97719.00;5054620;28;20029;-72
2022/09/15 06:10:02;;;;;;;5.60;2.15;;;;;;;16.88;100.00;97725.56;5059895;28;20055;-68
2022/09/15 06:12:28;;;;;;;4.97;2.13;;;;;;;16.84;100.00;97722.53;5058164;28;20040;-72
2022/09/15 06:14:53;;;;;;;5.35;2.33;;;;;;;16.92;100.00;97728.56;5067281;28;20024;-73
2022/09/15 06:17:19;;;;;;;4.40;2.13;;;;;;;16.92;100.00;97729.38;5068595;28;20036;-68
2022/09/15 06:19:44;;;;;;;5.53;2.63;;;;;;;16.85;100.00;97729.66;5058868;28;20310;-69
2022/09/15 06:22:10;;;;;;;6.28;2.30;;;;;;;16.92;100.00;97728.56;5054488;28;20151;-67
2022/09/15 06:24:35;;;;;;;5.40;2.80;;;;;;;16.90;100.00;97738.91;5058414;28;20033;-70
2022/09/15 06:27:01;;;;;;;5.25;2.80;;;;;;;16.89;100.00;97738.09;5062853;28;20027;-71
2022/09/15 06:29:27;;;;;;;4.90;2.35;;;;;;;16.92;100.00;97728.56;5042425;28;20021;-68
2022/09/15 06:31:53;;;;;;;3.97;2.60;;;;;;;16.94;100.00;97732.66;5041842;28;20078;-67
2022/09/15 06:34:20;;;;;;;4.28;2.00;;;;;;;16.85;100.00;97734.28;5064851;28;20497;-68
2022/09/15 06:36:45;;;;;;;5.80;1.98;;;;;;;16.90;100.00;97737.03;5047354;28;20036;-67
2022/09/15 06:39:10;;;;;;;4.70;2.28;;;;;;;16.90;100.00;97739.78;5048342;28;20021;-69
2022/09/15 06:41:35;;;;;;;6.60;2.67;;;;;;;16.80;100.00;97726.91;5056862;28;20048;-68
2022/09/15 06:44:01;;;;;;;6.13;2.38;;;;;;;16.93;100.00;97735.69;5051708;28;20033;-69
2022/09/15 06:46:27;;;;;;;4.43;2.40;;;;;;;17.04;100.00;97748.25;5058704;28;20021;-68
2022/09/15 06:48:53;;;;;;;4.88;2.42;;;;;;;17.08;100.00;97752.91;5045982;28;20020;-68
2022/09/15 06:51:21;;;;;;;4.28;2.42;;;;;;;17.30;100.00;97744.44;5061551;28;20051;-68
2022/09/15 06:53:48;;;;;;;7.15;2.00;;;;;;;17.21;100.00;97745.25;5059366;28;20031;-71
2022/09/15 06:56:16;;;;;;;3.72;1.95;;;;;;;17.21;100.00;97726.97;5064305;28;20487;-70
2022/09/15 06:58:42;;;;;;;4.65;2.13;;;;;;;17.17;100.00;97727.78;5061857;28;20024;-71
2022/09/15 07:01:11;;;;;;;6.28;2.45;;;;;;;17.25;100.00;97749.09;5054161;28;20064;-70
2022/09/15 07:03:38;;;;;;;3.37;1.83;;;;;;;17.23;100.00;97743.06;5058801;28;20044;-72
2022/09/15 07:06:04;;;;;;;9.13;2.20;;;;;;;17.20;100.00;97741.69;5060808;28;20029;-71
2022/09/15 07:08:30;;;;;;;8.68;2.10;;;;;;;17.13;100.00;97722.00;5064878;28;20035;-70
2022/09/15 07:10:55;;;;;;;6.72;1.95;;;;;;;17.30;100.00;97740.91;5066643;28;20028;-71
2022/09/15 07:13:22;;;;;;;3.83;1.65;;;;;;;17.44;100.00;97739.25;5056573;28;20025;-69
2022/09/15 07:15:56;;;;;;;5.07;1.77;;;;;;;17.34;100.00;97728.31;5062074;28;20032;-70
2022/09/15 07:18:23;;;;;;;3.55;1.83;;;;;;;17.29;100.00;97733.78;5048953;28;20040;-70
2022/09/15 07:20:49;;;;;;;4.63;2.08;;;;;;;17.21;100.00;97745.25;5062172;28;20032;-70
2022/09/15 07:23:15;;;;;;;7.07;1.98;;;;;;;17.23;100.00;97749.34;5071746;28;20066;-69
2022/09/15 07:25:44;;;;;;;3.80;2.08;;;;;;;17.12;100.00;97742.25;5050304;28;20028;-72
2022/09/15 07:28:15;;;;;;;4.72;2.03;;;;;;;17.11;100.00;97735.16;5046516;28;20424;-71
2022/09/15 07:30:42;;;;;;;3.97;2.00;;;;;;;17.37;100.00;97759.75;5040995;28;20108;-72
2022/09/15 07:33:09;;;;;;;5.70;2.30;;;;;;;17.21;100.00;97732.44;5075077;28;20186;-69
2022/09/15 07:35:39;;;;;;;5.55;2.25;;;;;;;17.35;100.00;97772.91;5051489;28;20057;-68
2022/09/15 07:38:05;;;;;;;4.15;2.22;;;;;;;17.26;100.00;97748.00;5057660;28;20036;-69
2022/09/15 07:40:30;;;;;;;5.25;2.35;;;;;;;17.20;100.00;97754.56;5040756;28;20035;-69
2022/09/15 07:42:56;;;;;;;6.40;2.63;;;;;;;17.20;100.00;97782.72;5053109;28;20474;-68
2022/09/15 07:45:21;;;;;;;4.15;2.38;;;;;;;17.24;100.00;97781.09;5053886;28;20033;-69
2022/09/15 07:47:46;;;;;;;8.75;2.58;;;;;;;17.25;100.00;97781.91;5060795;28;20028;-71
2022/09/15 07:50:13;;;;;;;8.65;2.42;;;;;;;17.29;100.00;97775.63;5064168;28;20032;-69
2022/09/15 07:52:38;;;;;;;5.68;2.30;;;;;;;17.22;100.00;97786.00;5039555;28;20020;-68
2022/09/15 07:55:04;;;;;;;4.03;2.33;;;;;;;17.14;100.00;97778.34;5055729;28;20103;-71
2022/09/15 07:57:30;;;;;;;4.35;2.13;;;;;;;17.09;100.00;97783.78;5036776;28;20055;-72
2022/09/15 07:59:55;;;;;;;5.18;2.00;;;;;;;16.88;100.00;97755.59;5054663;28;20638;-72
2022/09/15 08:02:21;;;;;;;5.60;2.25;;;;;;;17.29;100.00;97794.75;5065248;28;20021;-69
2022/09/15 08:04:46;;;;;;;4.60;1.80;;;;;;;17.36;100.00;97780.81;5055917;28;20024;-74
2022/09/15 08:07:12;;;;;;;4.00;2.03;;;;;;;17.52;100.00;97787.09;5059142;28;20033;-72
2022/09/15 08:09:38;;;;;;;3.80;1.58;;;;;;;17.45;100.00;97787.38;5055513;28;20021;-75
2022/09/15 08:12:05;;;;;;;5.80;1.65;;;;;;;17.20;100.00;97782.72;5061634;28;20025;-76
2022/09/15 08:14:31;;;;;;;5.35;1.60;;;;;;;17.06;100.00;97767.94;5054692;28;20526;-76
2022/09/15 08:17:03;;;;;;;2.80;1.45;;;;;;;17.01;100.00;97787.06;5053305;28;20099;-73
2022/09/15 08:19:31;;;;;;;5.43;1.30;;;;;;;17.04;100.00;97819.31;5050323;28;20111;-71
2022/09/15 08:21:57;;;;;;;2.97;0.80;;;;;;;16.93;100.00;97817.66;5037334;28;20079;-71
2022/09/15 08:24:23;;;;;;;5.82;0.82;;;;;;;16.76;100.00;97826.00;5054391;28;20437;-72
2022/09/15 08:26:49;;;;;;;1.63;0.50;;;;;;;16.73;100.00;97832.81;5058122;28;20032;-70
2022/09/15 08:29:16;;;;;;;1.23;0.30;;;;;;;16.65;100.00;97839.63;5054343;28;20036;-70
2022/09/15 08:31:43;;;;;;;1.63;0.50;;;;;;;16.63;100.00;97835.50;5063729;28;20031;-69
2022/09/15 08:34:10;;;;;;;0.55;0.40;;;;;;;16.59;100.00;97821.56;5059210;28;20509;-70
2022/09/15 08:36:36;;;;;;;1.90;0.50;;;;;;;16.70;100.00;97832.53;5051354;28;20036;-72
2022/09/15 08:39:02;;;;;;;4.00;0.50;;;;;;;16.76;100.00;97845.13;5056835;28;20364;-74
2022/09/15 08:41:48;;;;;;;0.93;0.40;;;;;;;16.70;100.00;97836.09;5054089;28;20033;-74
2022/09/15 08:44:38;;;;;;;2.17;0.40;;;;;;;16.62;100.00;97845.63;5030168;28;20112;-71
2022/09/15 08:47:26;;;;;;;0.55;0.30;;;;;;;16.57;100.00;97820.19;5054078;28;20652;-71
2022/09/15 08:50:04;;;;;;;1.65;0.20;;;;;;;16.89;100.00;97852.84;5060533;28;20028;-72
2022/09/15 08:52:41;;;;;;;1.08;0.30;;;;;;;17.00;100.00;97853.72;5052666;28;20570;-67
2022/09/15 08:55:32;;;;;;;0.13;0.10;;;;;;;17.06;100.00;97849.94;5059423;28;20028;-75
2022/09/15 08:57:57;;;;;;;1.13;0.30;;;;;;;17.04;100.00;97852.91;5042113;28;20047;-76
2022/09/15 09:00:23;;;;;;;0.68;0.30;;;;;;;17.08;100.00;97845.00;5067751;28;20367;-75
2022/09/15 09:02:54;;;;;;;0.95;0.22;;;;;;;17.25;100.00;97837.38;5043944;28;20024;-76
2022/09/15 09:05:28;;;;;;;1.67;0.30;;;;;;;17.21;100.00;97847.25;5046165;28;20032;-78
2022/09/15 09:07:58;;;;;;;2.05;0.32;;;;;;;17.21;100.00;97849.97;5051864;28;20024;-72
2022/09/15 09:10:23;;;;;;;0.85;0.20;;;;;;;17.20;100.00;97842.84;5053334;28;20025;-69
2022/09/15 09:13:04;;;;;;;4.30;0.22;;;;;;;17.19;100.00;97856.78;5065644;28;20723;-70
2022/09/15 09:15:53;;;;;;;0.30;0.20;;;;;;;17.15;100.00;97856.50;5049308;28;20044;-69
2022/09/15 09:19:00;;;;;;;0.60;0.35;;;;;;;16.94;100.00;97852.88;5051602;28;20524;-66
2022/09/15 09:21:32;;;;;;;0.85;0.32;;;;;;;16.68;100.00;97843.72;5022755;28;20068;-73
2022/09/15 09:24:07;;;;;;;0.80;0.40;;;;;;;16.39;100.00;97844.13;5068998;28;20028;-71
2022/09/15 09:26:35;;;;;;;0.70;0.60;;;;;;;16.30;100.00;97862.09;5063582;28;20021;-73
2022/09/15 09:29:25;;;;;;;0.75;0.60;;;;;;;16.12;100.00;97855.16;5056435;28;20036;-66
2022/09/15 09:31:53;;;;;;;2.03;0.88;;;;;;;16.08;100.00;97858.66;5051756;28;20494;-66
2022/09/15 09:34:19;;;;;;;2.03;0.80;;;;;;;16.05;100.00;97864.66;5054793;28;20040;-66
2022/09/15 09:36:45;;;;;;;1.67;1.00;;;;;;;15.93;100.00;97857.50;5058862;28;20037;-66
2022/09/15 09:39:13;;;;;;;2.63;1.20;;;;;;;15.87;100.00;97844.88;5055793;28;20028;-67
2022/09/15 09:41:40;;;;;;;4.50;1.20;;;;;;;15.79;100.00;97848.09;5058574;28;20075;-67
2022/09/15 09:44:11;;;;;;;2.53;1.27;;;;;;;15.89;100.00;97875.44;5055250;28;20081;-67
2022/09/15 09:46:37;;;;;;;2.20;1.35;;;;;;;15.65;100.00;97852.31;5056702;28;20029;-66
2022/09/15 09:49:11;;;;;;;4.50;1.30;;;;;;;15.84;100.00;97861.75;5061516;28;20124;-66
2022/09/15 09:51:47;;;;;;;3.15;1.38;;;;;;;15.77;100.00;97872.06;5053894;28;20028;-66
2022/09/15 09:54:15;;;;;;;2.03;1.30;;;;;;;15.78;100.00;97868.28;5058496;28;20048;-67
2022/09/15 09:56:42;;;;;;;5.40;1.35;;;;;;;15.76;100.00;97876.69;5059025;28;20032;-67
2022/09/15 09:59:40;;;;;;;1.88;1.30;;;;;;;15.81;100.00;97878.66;5056215;28;20024;-67
2022/09/15 10:02:11;;;;;;;2.05;1.60;;;;;;;15.77;100.00;97880.25;5050048;28;20090;-66
2022/09/15 10:04:38;;;;;;;3.35;1.38;;;;;;;15.72;100.00;97886.50;5059501;28;20024;-66
2022/09/15 10:07:04;;;;;;;3.60;1.33;;;;;;;15.49;100.00;97867.72;5055577;28;20020;-66
2022/09/15 10:09:30;;;;;;;2.22;1.55;;;;;;;15.54;100.00;97890.38;5055640;28;20035;-66
2022/09/15 10:11:58;;;;;;;3.67;1.77;;;;;;;15.37;100.00;97873.31;5064171;28;20098;-66
2022/09/15 10:14:26;;;;;;;2.03;1.65;;;;;;;15.45;100.00;97891.09;5053847;28;20115;-66
2022/09/15 10:16:55;;;;;;;3.63;1.67;;;;;;;15.34;100.00;97868.38;5062821;28;20052;-66
2022/09/15 10:19:20;;;;;;;;;;;;;;;15.45;100.00;97902.00;5048309;28;20036;-67
2022/09/15 10:21:46;;;;;;;2.15;1.80;;;;;;;15.42;100.00;97880.72;5057556;28;19920;-66
2022/09/15 10:24:34;;;;;;;3.35;1.92;;;;;;;15.29;100.00;97893.66;5059820;28;20029;-67
2022/09/15 10:27:33;;;;;;;3.58;1.73;;;;;;;15.13;100.00;97876.31;5058285;28;20951;-66
2022/09/15 10:30:16;;;;;;;3.45;1.80;;;;;;;15.13;100.00;97903.56;5054170;28;20052;-66
2022/09/15 10:32:42;;;;;;;3.90;1.75;;;;;;;15.13;100.00;97900.84;5056226;28;20029;-66
2022/09/15 10:35:13;;;;;;;2.88;1.70;;;;;;;14.99;100.00;97902.31;5056854;28;20035;-70
2022/09/15 10:38:07;;;;;;;3.50;1.73;;;;;;;14.85;100.00;97917.38;5062725;28;20101;-69
2022/09/15 10:40:42;;;;;;;3.92;2.10;;;;;;;14.83;100.00;97917.66;5046337;28;20024;-68
2022/09/15 10:43:43;;;;;;;3.38;2.13;;;;;;;14.84;100.00;97915.75;5058114;28;20074;-69
2022/09/15 10:46:46;;;;;;;3.78;1.98;;;;;;;14.80;100.00;97920.03;5063255;28;20020;-70
2022/09/15 10:49:30;;;;;;;2.85;1.98;;;;;;;14.74;100.00;97916.44;5026710;28;20155;-70
2022/09/15 10:52:22;;;;;;;6.55;2.67;;;;;;;14.69;100.00;97925.34;5064041;28;20024;-68
2022/09/15 10:55:00;;;;;;;3.17;2.20;;;;;;;14.73;100.00;97925.69;5052441;28;20028;-70
2022/09/15 10:57:53;;;;;;;3.47;2.50;;;;;;;14.62;100.00;97900.22;5062095;28;20032;-70
2022/09/15 11:00:21;;;;;;;6.28;2.38;;;;;;;14.60;100.00;97905.09;5063392;28;20420;-73
2022/09/15 11:03:17;;;;;;;4.50;1.70;;;;;;;14.63;100.00;97920.09;5068663;28;20036;-69
2022/09/15 11:06:09;;;;;;;3.28;1.45;;;;;;;14.63;100.00;97904.59;5048845;28;20440;-70
2022/09/15 11:08:35;;;;;;;3.20;1.55;;;;;;;14.87;100.00;97926.13;5058133;28;20068;-70
2022/09/15 11:11:21;;;;;;;3.83;1.48;;;;;;;14.75;100.00;97895.47;5048530;28;20067;-71
2022/09/15 11:14:16;;;;;;;5.40;1.50;;;;;;;15.02;100.00;97907.25;5052633;28;20025;-71
2022/09/15 11:17:15;;;;;;;2.35;1.42;;;;;;;15.19;100.00;97912.63;5041901;28;21015;-67
2022/09/15 11:20:11;;;;;;;3.47;1.10;;;;;;;15.45;100.00;97921.91;5058196;28;20025;-71
2022/09/15 11:22:43;;;;;;;4.55;1.40;;;;;;;15.27;100.00;97909.47;5041712;28;20049;-71
2022/09/15 11:25:34;;;;;;;2.88;1.05;;;;;;;15.55;100.00;97921.19;5046545;28;20479;-71
2022/09/15 11:28:35;;;;;;;2.40;1.13;;;;;;;15.71;100.00;97922.19;5054551;28;20055;-69
2022/09/15 11:31:08;;;;;;;2.90;1.30;;;;;;;15.80;100.00;97919.81;5031223;28;20048;-66
2022/09/15 11:33:44;;;;;;;4.63;1.27;;;;;;;15.96;100.00;97924.34;5062732;28;20169;-73
2022/09/15 11:36:17;;;;;;;3.40;1.20;;;;;;;15.92;100.00;97925.94;5052193;28;20032;-71
2022/09/15 11:38:52;;;;;;;2.40;1.15;;;;;;;15.99;100.00;97934.72;5064243;28;20136;-71
2022/09/15 11:41:32;;;;;;;4.10;1.30;;;;;;;16.24;100.00;97931.38;5053553;28;20036;-71
2022/09/15 11:44:12;;;;;;;3.55;1.30;;;;;;;16.15;100.00;97925.59;5059219;28;20036;-71